Last 24 Hour KALB Observations

Last 24 hours of surface weather observations from the Albany County Airport. Observations taken by the National Weather Service.


		
KALB 132051Z 30007G22KT 9SM -SN BKN036 M06/M12 A2952 RMK AO2 PK WND 29027/2008
 SNB1957 SLP002 P0000 60000 T10611122 53021=
KALB 132051Z COR 30007G22KT 9SM -SN FEW028 BKN034 BKN041 M06/M12 A2952 RMK AO2
 PK WND 29027/2008 SNB1957 SLP002 P0000 60000 T10611122 53021=
KALB 132151Z 28014G27KT 10SM -SN FEW028 BKN034 BKN041 M06/M13 A2955 RMK AO2 PK
 WND 27027/2142 SLP010 P0000 T10611128=
KALB 132251Z 28016G24KT 10SM -SN BKN037 M06/M13 A2957 RMK AO2 PK WND 29026/2230
 SLP019 PCPN VRY LGT P0000 T10611133=
KALB 132351Z 29020G28KT 10SM -SN BKN037 M06/M14 A2960 RMK AO2 PK WND 29028/2348
 SLP027 PCPN VRY LGT 4/001 P0000 60000 T10611139 11056 21067 52025=
KALB 140051Z 28013G20KT 10SM SCT037 BKN210 M07/M14 A2959 RMK AO2 SNE2357 SLP026
 P0000 T10671139=
KALB 140151Z 28008KT 10SM SCT035 BKN210 M07/M14 A2959 RMK AO2 SLP024 T10721144=
KALB 140251Z 26010KT 10SM FEW027 FEW034 SCT260 M08/M14 A2959 RMK AO2 SLP025
 60000 T10781144 55002=
KALB 140351Z 23007KT 10SM FEW027 FEW034 BKN260 M08/M15 A2961 RMK AO2 SLP030
 T10781150=
KALB 140451Z 24009KT 10SM BKN110 BKN180 BKN260 M07/M14 A2961 RMK AO2 SLP031
 T10721144 410561089=
KALB 140551Z 23007KT 10SM OVC110 M07/M14 A2960 RMK AO2 SLP030 4/001 60000
 T10721139 11061 21083 50005=
KALB 140651Z 26004KT 10SM OVC080 M07/M14 A2960 RMK AO2 SLP027 T10671144=
KALB 140751Z 00000KT 10SM BKN055 OVC070 M07/M14 A2959 RMK AO2 SLP024 PRESENT WX
 VCSH T10671144=
KALB 140851Z 00000KT 3SM -SN OVC032 M08/M12 A2959 RMK AO2 SNB34 SLP024 P0000
 60000 T10781122 57006=
KALB 140927Z 00000KT 2 1/2SM -SN OVC038 M08/M11 A2959 RMK AO2 TWR VIS 3 P0000
 T10781111=
KALB 140927Z 00000KT 2 1/2SM -SN OVC038 M08/M11 A2959=
KALB 140937Z 00000KT 3SM -SN OVC038 M08/M11 A2959 RMK AO2 P0000 T10781106=
KALB 140937Z 00000KT 3SM -SN OVC038 M08/M11 A2959=
KALB 140951Z 00000KT 3SM -SN OVC038 M08/M11 A2959 RMK AO2 SLP026 P0001
 T10781106=
KALB 141021Z 00000KT 2SM -SN OVC028 M08/M11 A2960 RMK AO2 TWR VIS 3 P0000
 T10781106=
KALB 141021Z 00000KT 2SM -SN OVC028 M08/M11 A2960=
KALB 141042Z 00000KT 2 1/2SM -SN OVC030 M07/M10 A2961 RMK AO2 TWR VIS 3 P0001
 T10721100=
KALB 141042Z 00000KT 2 1/2SM -SN OVC030 M07/M10 A2961=
KALB 141049Z 00000KT 3SM -SN OVC032 M07/M10 A2961 RMK AO2 P0001=
KALB 141049Z 00000KT 3SM -SN OVC032 M07/M10 A2961=
KALB 141051Z 00000KT 3SM -SN OVC032 M07/M10 A2961 RMK AO2 SLP033 P0001
 T10721100=
KALB 141130Z 00000KT 3SM -SN FEW012 BKN027 OVC090 M08/M10 A2963 RMK AO2 P0000
 T10781100=
KALB 141130Z 00000KT 3SM -SN FEW012 BKN027 OVC090 M08/M10 A2963=
KALB 141151Z 33003KT 9SM -SN FEW012 SCT027 OVC090 M08/M11 A2963 RMK AO2 SLP040
 SCT V BKN 4/001 PCPN VRY LGT P0000 60002 70002 T10781106 11067 21078 53014=
KALB 141251Z 33004KT 6SM -SN FEW014 BKN036 BKN070 OVC260 M08/M11 A2964 RMK AO2
 SLP043 P0000 T10781111=
KALB 141351Z 31004KT 10SM FEW036 FEW070 SCT260 M07/M11 A2968 RMK AO2 SNE22
 SLP056 P0000 T10721106=
KALB 141451Z 28007KT 10SM FEW025 FEW070 SCT140 M06/M11 A2971 RMK AO2 SLP065
 ACSL DSNT E 60000 T10611111 53025=
KALB 141551Z 29014G21KT 10SM FEW028 FEW100 FEW140 M06/M14 A2974 RMK AO2 SLP075
 ACSL DSNT E T10561139=
KALB 141651Z 31022G29KT 10SM FEW038 FEW120 M06/M17 A2975 RMK AO2 PK WND
 28033/1626 SLP081 OCNL DRSN T10611167=
KALB 141751Z 30014G28KT 10SM FEW045 M06/M17 A2979 RMK AO2 PK WND 29033/1713
 SLP093 60000 T10611167 11050 21083 53028=
KALB 141751Z COR 30014G28KT 10SM FEW045 M06/M17 A2979 RMK AO2 PK WND 29033/1713
 SLP093 4/001 60000 T10611167 11050 21083 53028=
KALB 141851Z 30016G27KT 10SM FEW045 M07/M16 A2982 RMK AO2 PK WND 28032/1817
 SLP101 T10671156 $=
KALB 141951Z 29017G27KT 10SM FEW045 M07/M17 A2985 RMK AO2 PK WND 30030/1901
 SLP114 T10721167=
KALB 142051Z 30011G19KT 10SM FEW045 M08/M17 A2990 RMK AO2 PK WND 28029/2001
 SLP131 T10831167 53037=